Time;durP1;ratioP1;P1;durP2;ratioP2;P2;SDS_P1;SDS_P2;PMS_P1;PMS_P2;Temp;Humidity;BMP_temperature;BMP_pressure;BME280_temperature;BME280_humidity;BME280_pressure;Samples;Min_cycle;Max_cycle;Signal;HPM_P1;HPM_P2
2021/08/28 00:01:27;;;;;;;2.00;1.80;;;15.30;99.90;;;;;;5076484;28;20462;-72
2021/08/28 00:03:54;;;;;;;2.30;2.10;;;15.30;99.90;;;;;;5076264;28;20465;-73
2021/08/28 00:06:21;;;;;;;1.90;1.70;;;15.30;99.90;;;;;;5076536;28;20485;-72
2021/08/28 00:08:47;;;;;;;2.43;2.00;;;15.30;99.90;;;;;;5076596;28;20918;-72
2021/08/28 00:11:16;;;;;;;2.40;2.20;;;15.30;99.90;;;;;;5076302;28;20459;-72
2021/08/28 00:13:43;;;;;;;2.37;2.17;;;15.30;99.90;;;;;;5077073;28;20466;-72
2021/08/28 00:16:10;;;;;;;2.10;2.00;;;15.30;99.90;;;;;;5078119;28;20739;-72
2021/08/28 00:18:37;;;;;;;2.30;2.10;;;15.30;99.90;;;;;;5077754;28;20465;-72
2021/08/28 00:21:04;;;;;;;2.90;2.07;;;15.30;99.90;;;;;;5077637;28;20465;-72
2021/08/28 00:23:31;;;;;;;2.30;1.93;;;15.30;99.90;;;;;;5075757;28;20929;-72
2021/08/28 00:25:58;;;;;;;2.03;1.93;;;15.30;99.90;;;;;;5076416;28;20469;-72
2021/08/28 00:28:26;;;;;;;2.40;2.20;;;15.30;99.90;;;;;;5075445;28;20971;-72
2021/08/28 00:30:53;;;;;;;2.17;2.07;;;15.30;99.90;;;;;;5076051;28;20492;-72
2021/08/28 00:33:19;;;;;;;2.70;2.50;;;15.30;99.90;;;;;;5075677;28;20465;-72
2021/08/28 00:35:46;;;;;;;2.30;2.10;;;15.30;99.90;;;;;;5075687;28;20899;-72
2021/08/28 00:38:13;;;;;;;2.77;2.57;;;15.30;99.90;;;;;;5075789;28;20454;-72
2021/08/28 00:40:40;;;;;;;2.70;2.50;;;15.30;99.90;;;;;;5075298;28;20449;-71
2021/08/28 00:43:07;;;;;;;3.33;3.13;;;15.30;99.90;;;;;;5074784;28;20611;-71
2021/08/28 00:45:36;;;;;;;2.60;2.40;;;15.30;99.90;;;;;;5074757;28;20797;-72
2021/08/28 00:48:06;;;;;;;5.13;2.77;;;15.30;99.90;;;;;;5074877;28;20500;-71
2021/08/28 00:50:34;;;;;;;3.80;2.47;;;15.30;99.90;;;;;;5074973;28;20760;-71
2021/08/28 00:53:02;;;;;;;2.87;2.67;;;15.30;99.90;;;;;;5074980;28;20486;-71
2021/08/28 00:55:30;;;;;;;3.50;3.20;;;15.30;99.90;;;;;;5074635;28;20541;-71
2021/08/28 00:57:57;;;;;;;3.10;2.80;;;15.20;99.90;;;;;;5075038;28;20470;-71
2021/08/28 01:00:24;;;;;;;5.90;2.97;;;15.20;99.90;;;;;;5074392;28;20469;-71
2021/08/28 01:02:53;;;;;;;3.20;3.00;;;15.20;99.90;;;;;;5074921;28;20466;-71
2021/08/28 01:05:23;;;;;;;3.10;2.60;;;15.20;99.90;;;;;;5074564;28;20919;-71
2021/08/28 01:08:00;;;;;;;2.83;2.60;;;15.20;99.90;;;;;;5074155;28;20466;-71
2021/08/28 01:10:33;;;;;;;3.77;2.83;;;15.20;99.90;;;;;;5074347;28;20466;-71
2021/08/28 01:13:06;;;;;;;3.27;2.97;;;15.20;99.90;;;;;;5074606;28;20446;-71
2021/08/28 01:15:34;;;;;;;3.40;2.83;;;15.20;99.90;;;;;;5074611;28;20470;-71
2021/08/28 01:18:03;;;;;;;3.23;3.03;;;15.20;99.90;;;;;;5075205;28;20450;-71
2021/08/28 01:20:39;;;;;;;4.60;2.67;;;15.20;99.90;;;;;;5074503;28;20519;-71
2021/08/28 01:23:06;;;;;;;3.50;3.20;;;15.20;99.90;;;;;;5074368;28;20886;-71
2021/08/28 01:25:34;;;;;;;3.60;3.30;;;15.20;99.90;;;;;;5073922;28;20477;-71
2021/08/28 01:28:06;;;;;;;4.10;3.20;;;15.20;99.90;;;;;;5074084;28;20785;-71
2021/08/28 01:30:34;;;;;;;2.93;2.73;;;15.20;99.90;;;;;;5074157;28;20473;-71
2021/08/28 01:33:02;;;;;;;3.93;3.53;;;15.20;99.90;;;;;;5074068;28;20769;-71
2021/08/28 01:35:29;;;;;;;5.47;4.10;;;15.20;99.90;;;;;;5074096;28;20549;-71
2021/08/28 01:37:57;;;;;;;4.00;3.70;;;15.20;99.90;;;;;;5073663;28;20466;-71
2021/08/28 01:40:26;;;;;;;4.60;3.90;;;15.20;99.90;;;;;;5073827;28;20459;-71
2021/08/28 01:42:54;;;;;;;5.40;4.10;;;15.10;99.90;;;;;;5073593;28;20486;-71
2021/08/28 01:45:22;;;;;;;4.80;3.90;;;15.10;99.90;;;;;;5074006;28;20469;-71
2021/08/28 01:47:53;;;;;;;4.07;3.43;;;15.10;99.90;;;;;;5073936;28;20462;-70
2021/08/28 01:50:22;;;;;;;4.10;3.77;;;15.10;99.90;;;;;;5073623;28;20810;-71
2021/08/28 01:52:50;;;;;;;4.60;4.20;;;15.10;99.90;;;;;;5073578;28;20454;-71
2021/08/28 01:55:17;;;;;;;4.00;3.60;;;15.20;99.90;;;;;;5073758;28;20462;-71
2021/08/28 01:57:45;;;;;;;5.00;4.60;;;15.10;99.90;;;;;;5073449;28;20469;-71
2021/08/28 02:00:12;;;;;;;4.80;4.30;;;15.10;99.90;;;;;;5074101;28;20540;-71
2021/08/28 02:02:39;;;;;;;5.00;4.30;;;15.10;99.90;;;;;;5073703;28;20458;-71
2021/08/28 02:05:11;;;;;;;4.60;4.20;;;15.10;99.90;;;;;;5073445;28;20806;-71
2021/08/28 02:07:48;;;;;;;5.57;4.70;;;15.10;99.90;;;;;;5073885;28;20438;-71
2021/08/28 02:10:19;;;;;;;6.07;4.40;;;15.00;99.90;;;;;;5073299;28;20469;-71
2021/08/28 02:12:50;;;;;;;4.80;4.40;;;15.00;99.90;;;;;;5073694;28;20476;-71
2021/08/28 02:15:21;;;;;;;6.70;4.70;;;15.00;99.90;;;;;;5073721;28;20458;-71
2021/08/28 02:17:51;;;;;;;5.57;5.07;;;15.00;99.90;;;;;;5073422;28;20446;-70
2021/08/28 02:20:22;;;;;;;4.90;4.50;;;15.00;99.90;;;;;;5073717;28;20527;-71
2021/08/28 02:22:56;;;;;;;6.03;5.13;;;15.00;99.90;;;;;;5073757;28;20446;-71
2021/08/28 02:25:29;;;;;;;8.43;5.20;;;15.00;99.90;;;;;;5073983;28;20790;-71
2021/08/28 02:28:01;;;;;;;6.27;5.00;;;15.00;99.90;;;;;;5073543;28;20442;-71
2021/08/28 02:30:30;;;;;;;5.43;4.93;;;15.10;99.90;;;;;;5073693;28;20481;-71
2021/08/28 02:32:58;;;;;;;5.60;5.10;;;15.10;99.90;;;;;;5073332;28;20481;-71
2021/08/28 02:35:28;;;;;;;5.83;5.23;;;15.10;99.90;;;;;;5073511;28;20531;-71
2021/08/28 02:37:57;;;;;;;5.80;5.20;;;15.10;99.90;;;;;;5073517;28;20446;-71
2021/08/28 02:40:25;;;;;;;9.13;5.17;;;15.10;99.90;;;;;;5073541;28;20458;-71
2021/08/28 02:42:53;;;;;;;5.93;5.33;;;15.10;99.90;;;;;;5073341;28;20497;-71
2021/08/28 02:45:26;;;;;;;6.63;6.03;;;15.10;99.90;;;;;;5073303;28;20468;-71
2021/08/28 02:47:53;;;;;;;6.10;5.50;;;15.10;99.90;;;;;;5073588;28;20453;-71
2021/08/28 02:50:21;;;;;;;6.60;6.00;;;15.00;99.90;;;;;;5073486;28;20509;-71
2021/08/28 02:52:50;;;;;;;6.33;5.73;;;15.00;99.90;;;;;;5076468;28;20830;-71
2021/08/28 02:55:19;;;;;;;6.30;5.70;;;15.00;99.90;;;;;;5076771;28;20466;-71
2021/08/28 02:57:49;;;;;;;7.63;6.27;;;15.00;99.90;;;;;;5077133;28;20462;-71
2021/08/28 03:00:18;;;;;;;6.50;5.90;;;15.00;99.90;;;;;;5077008;28;20461;-72
2021/08/28 03:02:46;;;;;;;8.40;6.93;;;14.90;99.90;;;;;;5076706;28;20481;-72
2021/08/28 03:05:14;;;;;;;6.93;6.23;;;14.90;99.90;;;;;;5076785;28;20454;-71
2021/08/28 03:07:42;;;;;;;8.73;6.60;;;14.90;99.90;;;;;;5076900;28;20454;-71
2021/08/28 03:10:11;;;;;;;7.33;6.63;;;14.90;99.90;;;;;;5076471;28;20489;-71
2021/08/28 03:12:38;;;;;;;9.90;6.07;;;14.90;99.90;;;;;;5076461;28;20464;-71
2021/08/28 03:15:07;;;;;;;7.60;6.10;;;14.90;99.90;;;;;;5076428;28;20462;-71
2021/08/28 03:17:36;;;;;;;6.53;5.63;;;14.90;99.90;;;;;;5076779;28;20462;-71
2021/08/28 03:20:07;;;;;;;7.40;6.70;;;14.90;99.90;;;;;;5076776;28;20561;-71
2021/08/28 03:22:34;;;;;;;8.50;7.50;;;14.90;99.90;;;;;;5076747;28;20534;-71
2021/08/28 03:25:02;;;;;;;6.97;6.37;;;14.90;99.90;;;;;;5077104;28;20466;-71
2021/08/28 03:27:31;;;;;;;6.83;6.13;;;14.90;99.90;;;;;;5077553;28;20465;-71
2021/08/28 03:29:59;;;;;;;7.20;6.50;;;14.90;99.90;;;;;;5077001;28;20590;-71
2021/08/28 03:32:26;;;;;;;8.23;7.43;;;14.90;99.90;;;;;;5078419;28;20938;-71
2021/08/28 03:34:54;;;;;;;9.20;6.30;;;14.90;99.90;;;;;;5077592;28;20465;-71
2021/08/28 03:37:22;;;;;;;8.43;7.33;;;14.80;99.90;;;;;;5076555;28;20937;-71
2021/08/28 03:39:49;;;;;;;7.10;6.50;;;14.80;99.90;;;;;;5076617;28;20837;-71
2021/08/28 03:42:16;;;;;;;8.13;6.20;;;14.80;99.90;;;;;;5076320;28;20478;-71
2021/08/28 03:44:44;;;;;;;7.50;6.57;;;14.80;99.90;;;;;;5075837;28;20447;-72
2021/08/28 03:47:14;;;;;;;8.07;7.27;;;14.80;99.90;;;;;;5076031;28;20466;-71
2021/08/28 03:49:41;;;;;;;6.90;6.30;;;14.90;99.90;;;;;;5075923;28;20465;-71
2021/08/28 03:52:07;;;;;;;7.87;7.07;;;14.90;99.90;;;;;;5076087;28;20809;-71
2021/08/28 03:54:34;;;;;;;8.07;7.33;;;14.80;99.90;;;;;;5075627;28;20929;-72
2021/08/28 03:57:03;;;;;;;9.00;7.67;;;14.90;99.90;;;;;;5075455;28;20457;-71
2021/08/28 03:59:30;;;;;;;7.23;6.50;;;14.90;99.90;;;;;;5075879;28;20461;-71
2021/08/28 04:01:58;;;;;;;7.90;7.13;;;14.90;99.90;;;;;;5075350;28;20465;-71
2021/08/28 04:04:24;;;;;;;7.93;7.07;;;14.90;99.90;;;;;;5075534;28;20458;-72
2021/08/28 04:06:51;;;;;;;9.17;7.33;;;14.90;99.90;;;;;;5075716;28;20458;-71
2021/08/28 04:09:18;;;;;;;7.90;6.57;;;14.90;99.90;;;;;;5075849;28;20760;-72
2021/08/28 04:11:44;;;;;;;7.10;6.40;;;14.80;99.90;;;;;;5075428;28;20809;-72
2021/08/28 04:14:11;;;;;;;6.73;6.03;;;14.80;99.90;;;;;;5075660;28;20466;-72
2021/08/28 04:16:38;;;;;;;7.80;7.10;;;14.80;99.90;;;;;;5075147;28;20466;-71
2021/08/28 04:19:06;;;;;;;7.33;6.60;;;14.70;99.90;;;;;;5075520;28;20470;-72
2021/08/28 04:21:33;;;;;;;7.50;6.80;;;14.70;99.90;;;;;;5075529;28;20450;-72
2021/08/28 04:24:01;;;;;;;6.60;5.63;;;14.70;99.90;;;;;;5075358;28;20976;-71
2021/08/28 04:26:27;;;;;;;8.97;6.57;;;14.70;99.90;;;;;;5075511;28;20557;-71
2021/08/28 04:28:56;;;;;;;9.93;7.43;;;14.70;99.90;;;;;;5075161;28;20516;-72
2021/08/28 04:31:22;;;;;;;8.87;7.30;;;14.70;99.90;;;;;;5075103;28;20509;-72
2021/08/28 04:33:49;;;;;;;8.27;7.10;;;14.70;99.90;;;;;;5074993;28;20462;-72
2021/08/28 04:36:17;;;;;;;7.27;6.57;;;14.70;99.90;;;;;;5075037;28;20459;-72
2021/08/28 04:38:44;;;;;;;7.40;6.60;;;14.70;99.90;;;;;;5075256;28;20516;-71
2021/08/28 04:41:11;;;;;;;9.87;6.27;;;14.70;99.90;;;;;;5074764;28;20458;-72
2021/08/28 04:43:38;;;;;;;6.93;6.23;;;14.60;99.90;;;;;;5074600;28;20486;-71
2021/08/28 04:46:04;;;;;;;8.30;5.93;;;14.60;99.90;;;;;;5074891;28;20523;-72
2021/08/28 04:48:32;;;;;;;6.77;5.93;;;14.60;99.90;;;;;;5074901;28;20458;-72
2021/08/28 04:50:59;;;;;;;5.47;4.93;;;14.60;99.90;;;;;;5074606;28;20529;-72
2021/08/28 04:53:27;;;;;;;7.23;5.80;;;14.70;99.90;;;;;;5074619;28;20544;-72
2021/08/28 04:55:54;;;;;;;6.70;6.00;;;14.70;99.90;;;;;;5074660;28;20469;-71
2021/08/28 04:58:20;;;;;;;7.53;6.27;;;14.70;99.90;;;;;;5074627;28;20458;-71
2021/08/28 05:00:47;;;;;;;7.80;7.00;;;14.70;99.90;;;;;;5074620;28;20556;-71
2021/08/28 05:03:14;;;;;;;9.00;6.80;;;14.70;99.90;;;;;;5074686;28;20554;-71
2021/08/28 05:05:41;;;;;;;9.73;6.40;;;14.60;99.90;;;;;;5074590;28;20462;-71
2021/08/28 05:08:07;;;;;;;6.90;5.87;;;14.60;99.90;;;;;;5074818;28;20849;-71
2021/08/28 05:10:36;;;;;;;7.40;6.40;;;14.60;99.90;;;;;;5074226;28;20911;-71
2021/08/28 05:13:02;;;;;;;7.20;5.87;;;14.60;99.90;;;;;;5074496;28;20567;-71
2021/08/28 05:15:32;;;;;;;10.20;6.33;;;14.50;99.90;;;;;;5073986;28;20461;-71
2021/08/28 05:17:59;;;;;;;9.30;6.87;;;14.50;99.90;;;;;;5074348;28;20970;-71
2021/08/28 05:20:25;;;;;;;8.13;6.27;;;14.40;99.90;;;;;;5074437;28;20458;-71
2021/08/28 05:22:52;;;;;;;8.03;6.10;;;14.40;99.90;;;;;;5074295;28;20465;-71
2021/08/28 05:25:21;;;;;;;7.70;6.37;;;14.30;99.90;;;;;;5074027;28;20933;-71
2021/08/28 05:27:49;;;;;;;6.70;5.67;;;14.30;99.90;;;;;;5074429;28;20489;-72
2021/08/28 05:30:17;;;;;;;7.60;6.10;;;14.30;99.90;;;;;;5074360;28;20454;-72
2021/08/28 05:32:44;;;;;;;7.00;5.50;;;14.30;99.90;;;;;;5074218;28;20458;-72
2021/08/28 05:35:11;;;;;;;7.80;5.70;;;14.30;99.90;;;;;;5074172;28;20837;-72
2021/08/28 05:37:38;;;;;;;5.30;4.50;;;14.30;99.90;;;;;;5074270;28;20458;-71
2021/08/28 05:40:07;;;;;;;6.40;4.37;;;14.30;99.90;;;;;;5074143;28;20798;-71
2021/08/28 05:42:34;;;;;;;5.03;4.53;;;14.30;99.90;;;;;;5073662;28;20525;-72
2021/08/28 05:45:03;;;;;;;5.13;3.73;;;14.30;99.90;;;;;;5074356;28;20511;-72
2021/08/28 05:47:29;;;;;;;4.60;4.10;;;14.30;99.90;;;;;;5073994;28;20550;-72
2021/08/28 05:49:56;;;;;;;5.97;4.30;;;14.30;99.90;;;;;;5074085;28;20508;-72
2021/08/28 05:52:23;;;;;;;5.00;4.50;;;14.30;99.90;;;;;;5073582;28;20478;-71
2021/08/28 05:54:49;;;;;;;5.10;4.00;;;14.30;99.90;;;;;;5073808;28;20462;-71
2021/08/28 05:57:16;;;;;;;5.50;4.50;;;14.30;99.90;;;;;;5074179;28;20461;-71
2021/08/28 05:59:43;;;;;;;4.57;4.10;;;14.30;99.90;;;;;;5074048;28;20462;-71
2021/08/28 06:02:11;;;;;;;5.20;4.50;;;14.40;99.90;;;;;;5074153;28;20511;-71
2021/08/28 06:04:38;;;;;;;6.10;4.40;;;14.40;99.90;;;;;;5073951;28;20917;-71
2021/08/28 06:07:05;;;;;;;5.30;4.37;;;14.40;99.90;;;;;;5074004;28;20831;-72
2021/08/28 06:09:32;;;;;;;5.57;4.27;;;14.30;99.90;;;;;;5073498;28;20911;-71
2021/08/28 06:11:58;;;;;;;4.80;4.30;;;14.40;99.90;;;;;;5073906;28;20494;-72
2021/08/28 06:14:25;;;;;;;6.87;4.57;;;14.40;99.90;;;;;;5074034;28;20454;-71
2021/08/28 06:16:52;;;;;;;3.80;3.47;;;14.40;99.90;;;;;;5073684;28;20458;-71
2021/08/28 06:19:20;;;;;;;4.63;4.00;;;14.40;99.90;;;;;;5073833;28;20458;-71
2021/08/28 06:21:47;;;;;;;7.30;4.67;;;14.40;99.90;;;;;;5073865;28;20450;-71
2021/08/28 06:24:14;;;;;;;4.53;3.83;;;14.40;99.90;;;;;;5073978;28;20453;-71
2021/08/28 06:26:40;;;;;;;4.60;3.67;;;14.40;99.90;;;;;;5075196;28;20458;-71
2021/08/28 06:29:07;;;;;;;6.40;4.67;;;14.40;99.90;;;;;;5077568;28;20481;-71
2021/08/28 06:31:34;;;;;;;5.07;4.10;;;14.50;99.90;;;;;;5077217;28;20474;-71
2021/08/28 06:34:00;;;;;;;7.37;4.70;;;14.50;99.90;;;;;;5077267;28;20468;-71
2021/08/28 06:36:28;;;;;;;4.90;3.77;;;14.50;99.90;;;;;;5077209;28;20895;-72
2021/08/28 06:38:55;;;;;;;6.63;3.90;;;14.60;99.90;;;;;;5077062;28;20454;-71
2021/08/28 06:41:22;;;;;;;5.47;4.37;;;14.70;99.90;;;;;;5078357;28;20910;-72
2021/08/28 06:43:49;;;;;;;4.53;3.63;;;14.80;99.90;;;;;;5081890;28;20969;-72
2021/08/28 06:46:15;;;;;;;7.17;4.23;;;14.80;99.90;;;;;;5077729;28;20759;-71
2021/08/28 06:48:44;;;;;;;3.83;3.50;;;14.90;99.90;;;;;;5076802;28;20462;-71
2021/08/28 06:51:11;;;;;;;4.67;4.17;;;14.90;99.90;;;;;;5077233;28;20808;-71
2021/08/28 06:53:39;;;;;;;6.80;4.20;;;15.00;99.90;;;;;;5077056;28;20541;-71
2021/08/28 06:56:06;;;;;;;4.90;4.20;;;14.90;99.90;;;;;;5077050;28;20817;-70
2021/08/28 06:58:33;;;;;;;5.50;4.30;;;14.90;99.90;;;;;;5077461;28;20459;-72
2021/08/28 07:00:59;;;;;;;4.60;3.73;;;14.90;99.90;;;;;;5076975;28;20454;-71
2021/08/28 07:03:28;;;;;;;5.93;4.60;;;15.00;99.90;;;;;;5076763;28;20454;-71
2021/08/28 07:05:55;;;;;;;4.60;4.20;;;15.00;99.90;;;;;;5076952;28;20490;-71
2021/08/28 07:08:22;;;;;;;4.87;4.00;;;15.00;99.90;;;;;;5076968;28;20458;-71
2021/08/28 07:10:50;;;;;;;3.90;3.60;;;15.10;99.90;;;;;;5076510;28;20842;-71
2021/08/28 07:13:17;;;;;;;5.50;3.83;;;15.20;99.90;;;;;;5076435;28;20550;-72
2021/08/28 07:15:44;;;;;;;4.70;3.80;;;15.30;99.90;;;;;;5076484;28;20937;-70
2021/08/28 07:18:11;;;;;;;5.67;4.00;;;15.30;99.90;;;;;;5076461;28;20465;-71
2021/08/28 07:20:38;;;;;;;5.50;4.10;;;15.40;99.90;;;;;;5076472;28;20458;-71
2021/08/28 07:23:05;;;;;;;4.07;3.40;;;15.40;99.90;;;;;;5076210;28;20786;-71
2021/08/28 07:25:33;;;;;;;4.10;3.70;;;15.40;99.90;;;;;;5076827;28;20458;-71
2021/08/28 07:28:01;;;;;;;3.97;3.57;;;15.50;99.90;;;;;;5076456;28;20459;-71
2021/08/28 07:30:28;;;;;;;3.87;3.50;;;15.50;99.90;;;;;;5076041;28;20459;-71
2021/08/28 07:32:56;;;;;;;5.00;3.63;;;15.60;99.90;;;;;;5076247;28;20481;-71
2021/08/28 07:35:22;;;;;;;4.10;3.43;;;15.60;99.90;;;;;;5075981;28;20849;-72
2021/08/28 07:37:49;;;;;;;4.10;3.70;;;15.70;99.90;;;;;;5075139;28;20964;-71
2021/08/28 07:40:16;;;;;;;3.80;3.40;;;15.70;99.90;;;;;;5076040;28;20462;-72
2021/08/28 07:42:43;;;;;;;4.90;4.20;;;15.70;99.90;;;;;;5075485;28;20479;-71
2021/08/28 07:45:12;;;;;;;5.80;4.70;;;15.70;99.90;;;;;;5075299;28;20467;-71
2021/08/28 07:47:38;;;;;;;4.20;3.30;;;15.80;99.90;;;;;;5075424;28;20752;-72
2021/08/28 07:50:06;;;;;;;3.60;3.10;;;15.90;99.90;;;;;;5075899;28;20481;-72
2021/08/28 07:52:33;;;;;;;3.57;2.80;;;15.90;99.90;;;;;;5075729;28;20496;-72
2021/08/28 07:55:00;;;;;;;3.43;3.07;;;16.00;99.90;;;;;;5075957;28;20458;-71
2021/08/28 07:57:27;;;;;;;3.90;3.23;;;16.10;99.90;;;;;;5075568;28;20454;-72
2021/08/28 07:59:53;;;;;;;5.07;4.33;;;16.20;99.90;;;;;;5075229;28;20462;-72
2021/08/28 08:02:21;;;;;;;3.30;3.00;;;16.20;99.90;;;;;;5074822;28;20775;-72
2021/08/28 08:04:48;;;;;;;3.77;3.17;;;16.20;99.90;;;;;;5074703;28;20454;-72
2021/08/28 08:07:15;;;;;;;5.47;3.40;;;16.20;99.90;;;;;;5074698;28;20462;-72
2021/08/28 08:09:42;;;;;;;4.27;3.87;;;16.30;99.90;;;;;;5075490;28;20458;-71
2021/08/28 08:12:09;;;;;;;4.43;3.73;;;16.30;99.90;;;;;;5075180;28;20486;-70
2021/08/28 08:14:35;;;;;;;4.07;3.70;;;16.40;99.90;;;;;;5075049;28;20454;-72
2021/08/28 08:17:02;;;;;;;3.57;3.27;;;16.40;99.90;;;;;;5075240;28;20454;-72
2021/08/28 08:19:31;;;;;;;4.20;3.70;;;16.40;99.90;;;;;;5074733;28;20516;-71
2021/08/28 08:21:58;;;;;;;4.07;3.67;;;16.40;99.90;;;;;;5074826;28;20450;-70
2021/08/28 08:24:25;;;;;;;5.37;4.77;;;16.50;99.90;;;;;;5074611;28;20458;-71
2021/08/28 08:26:51;;;;;;;5.37;4.17;;;16.50;99.90;;;;;;5075167;28;20458;-71
2021/08/28 08:29:18;;;;;;;3.73;3.43;;;16.60;99.90;;;;;;5075264;28;20461;-71
2021/08/28 08:31:45;;;;;;;3.20;2.90;;;16.80;99.90;;;;;;5074918;28;20481;-71
2021/08/28 08:34:12;;;;;;;3.30;3.00;;;16.80;99.90;;;;;;5074928;28;20466;-71
2021/08/28 08:36:42;;;;;;;3.80;3.40;;;16.90;99.90;;;;;;5074789;28;20471;-71
2021/08/28 08:39:09;;;;;;;3.23;2.87;;;16.90;99.90;;;;;;5075738;28;20751;-72
2021/08/28 08:41:36;;;;;;;3.20;2.70;;;17.00;99.90;;;;;;5075434;28;20454;-72
2021/08/28 08:44:04;;;;;;;3.43;3.13;;;17.00;99.90;;;;;;5074863;28;20536;-73
2021/08/28 08:46:32;;;;;;;3.23;2.90;;;17.00;99.90;;;;;;5075507;28;20910;-72
2021/08/28 08:49:00;;;;;;;4.17;2.83;;;17.10;99.90;;;;;;5075279;28;20624;-73
2021/08/28 08:51:27;;;;;;;3.33;3.00;;;17.10;99.90;;;;;;5075718;28;20466;-70
2021/08/28 08:53:56;;;;;;;2.73;2.53;;;17.10;99.90;;;;;;5075476;28;20988;-72
2021/08/28 08:56:23;;;;;;;3.10;2.90;;;17.30;99.90;;;;;;5075414;28;20469;-70
2021/08/28 08:58:51;;;;;;;3.50;3.20;;;17.30;99.90;;;;;;5074843;28;20938;-71
2021/08/28 09:01:18;;;;;;;2.67;2.47;;;17.30;99.90;;;;;;5076398;28;20458;-72
2021/08/28 09:03:45;;;;;;;3.40;3.10;;;17.40;96.80;;;;;;5078616;28;20462;-71
2021/08/28 09:06:12;;;;;;;4.00;2.90;;;17.40;86.50;;;;;;5079373;28;20470;-72
2021/08/28 09:08:39;;;;;;;4.73;3.60;;;17.50;1.00;;;;;;5080602;28;20454;-72
2021/08/28 09:11:20;;;;;;;3.70;2.77;;;17.50;1.00;;;;;;5081839;28;20458;-71
2021/08/28 09:13:46;;;;;;;8.30;3.40;;;17.50;1.00;;;;;;5084158;28;20441;-72
2021/08/28 09:16:29;;;;;;;3.90;3.23;;;17.50;1.00;;;;;;5080333;28;20936;-72
2021/08/28 09:18:56;;;;;;;2.97;2.70;;;17.50;1.00;;;;;;5077036;28;20465;-72
2021/08/28 09:21:23;;;;;;;3.50;3.20;;;17.50;1.00;;;;;;5077782;28;20454;-72
2021/08/28 09:23:58;;;;;;;6.97;4.97;;;17.50;1.00;;;;;;5079328;28;20462;-71
2021/08/28 09:26:27;;;;;;;3.20;2.90;;;17.60;1.00;;;;;;5077630;28;20454;-71
2021/08/28 09:28:55;;;;;;;2.90;2.70;;;17.70;1.00;;;;;;5074577;28;20453;-71
2021/08/28 09:31:37;;;;;;;3.40;2.70;;;17.70;1.00;;;;;;5074775;28;20469;-71
2021/08/28 09:34:14;;;;;;;4.03;2.90;;;17.80;1.00;;;;;;5074074;28;20441;-72
2021/08/28 09:36:41;;;;;;;2.70;2.27;;;17.90;1.00;;;;;;5074251;28;20438;-72
2021/08/28 09:39:08;;;;;;;3.27;2.50;;;18.00;99.90;;;;;;5074342;28;20467;-72
2021/08/28 09:41:36;;;;;;;3.73;2.30;;;18.00;99.90;;;;;;5073878;28;20454;-72
2021/08/28 09:44:06;;;;;;;3.03;2.70;;;18.20;99.90;;;;;;5073813;28;20505;-72
2021/08/28 09:46:33;;;;;;;2.70;2.50;;;18.20;1.00;;;;;;5074429;28;20458;-72
2021/08/28 09:49:01;;;;;;;2.80;2.50;;;18.30;1.00;;;;;;5074142;28;20465;-72
2021/08/28 09:51:34;;;;;;;2.63;2.43;;;18.40;99.90;;;;;;5074459;28;20501;-71
2021/08/28 09:54:02;;;;;;;2.30;2.10;;;18.40;99.90;;;;;;5074921;28;20579;-71
2021/08/28 09:56:29;;;;;;;2.90;2.70;;;18.50;1.00;;;;;;5073817;28;20822;-71
2021/08/28 09:58:57;;;;;;;3.17;2.53;;;18.50;99.90;;;;;;5073991;28;20454;-72
2021/08/28 10:01:24;;;;;;;2.37;2.17;;;18.60;1.00;;;;;;5077002;28;20457;-71
2021/08/28 10:04:00;;;;;;;2.60;2.40;;;18.60;1.00;;;;;;5077793;28;20458;-71
2021/08/28 10:06:28;;;;;;;2.77;2.57;;;18.50;1.00;;;;;;5078176;28;20458;-71
2021/08/28 10:08:55;;;;;;;2.93;2.73;;;18.40;46.00;;;;;;5077982;28;20466;-71
2021/08/28 10:11:23;;;;;;;2.63;2.43;;;18.30;99.90;;;;;;5078169;28;20495;-71
2021/08/28 10:13:51;;;;;;;3.57;2.50;;;18.30;99.90;;;;;;5078261;28;20506;-71
2021/08/28 10:16:19;;;;;;;3.33;3.03;;;18.20;99.90;;;;;;5076478;28;20482;-70
2021/08/28 10:18:48;;;;;;;2.50;2.30;;;18.20;99.90;;;;;;5078943;28;20777;-71
2021/08/28 10:21:16;;;;;;;2.63;2.33;;;18.20;99.90;;;;;;5077398;28;20895;-71
2021/08/28 10:23:43;;;;;;;3.30;2.53;;;18.20;99.90;;;;;;5077329;28;20442;-70
2021/08/28 10:26:11;;;;;;;2.53;2.33;;;18.20;99.90;;;;;;5077256;28;20936;-70
2021/08/28 10:28:40;;;;;;;3.03;2.60;;;18.10;99.90;;;;;;5076788;28;20465;-70
2021/08/28 10:31:10;;;;;;;2.43;2.23;;;18.20;99.90;;;;;;5077602;28;20458;-70
2021/08/28 10:33:39;;;;;;;4.30;2.10;;;18.30;99.90;;;;;;5077467;28;20474;-73
2021/08/28 10:36:08;;;;;;;2.60;2.40;;;18.40;99.90;;;;;;5084756;28;20454;-78
2021/08/28 10:38:35;;;;;;;4.30;2.30;;;18.60;99.90;;;;;;5084358;28;20836;-78
2021/08/28 10:41:02;;;;;;;2.70;2.50;;;18.70;99.90;;;;;;5082887;28;20458;-78
2021/08/28 10:43:30;;;;;;;2.23;2.03;;;18.90;99.90;;;;;;5085381;28;20474;-78
2021/08/28 10:45:57;;;;;;;2.30;2.10;;;19.20;99.90;;;;;;5081036;28;20469;-73
2021/08/28 10:48:23;;;;;;;1.90;1.80;;;19.40;99.90;;;;;;5078943;28;20454;-73
2021/08/28 10:50:53;;;;;;;2.47;2.03;;;19.70;99.90;;;;;;5078114;28;20462;-73
2021/08/28 10:53:20;;;;;;;1.70;1.60;;;19.90;99.90;;;;;;5077157;28;20616;-73
2021/08/28 10:55:48;;;;;;;1.77;1.50;;;19.90;99.90;;;;;;5077582;28;20458;-72
2021/08/28 10:58:18;;;;;;;2.77;1.87;;;20.10;99.90;;;;;;5078146;28;20515;-72
2021/08/28 11:00:47;;;;;;;3.30;1.30;;;20.20;99.90;;;;;;5077353;28;20468;-72
2021/08/28 11:03:26;;;;;;;1.70;1.50;;;20.30;99.90;;;;;;5080232;28;20461;-72
2021/08/28 11:06:24;;;;;;;2.03;1.70;;;20.40;99.90;;;;;;5080770;28;20457;-72
2021/08/28 11:08:51;;;;;;;2.33;1.50;;;20.60;99.90;;;;;;5083711;28;20519;-72
2021/08/28 11:11:20;;;;;;;1.90;1.80;;;20.70;99.90;;;;;;5081991;28;20747;-72
2021/08/28 11:13:58;;;;;;;1.50;1.40;;;20.80;99.90;;;;;;5082497;28;20474;-72
2021/08/28 11:16:55;;;;;;;2.80;1.67;;;20.90;99.90;;;;;;5081886;28;20454;-73
2021/08/28 11:19:37;;;;;;;1.60;1.50;;;21.00;99.90;;;;;;5081222;28;20460;-72
2021/08/28 11:22:07;;;;;;;2.70;1.70;;;21.10;99.90;;;;;;5083869;28;20519;-73
2021/08/28 11:24:34;;;;;;;1.87;1.70;;;21.30;99.90;;;;;;5085276;28;20451;-73
2021/08/28 11:27:04;;;;;;;1.80;1.50;;;21.60;99.90;;;;;;5084127;28;20462;-73
2021/08/28 11:29:33;;;;;;;1.67;1.50;;;21.70;99.90;;;;;;5083717;28;20443;-73
2021/08/28 11:32:10;;;;;;;2.00;1.80;;;22.00;99.90;;;;;;5084666;28;20540;-73
2021/08/28 11:34:40;;;;;;;2.20;1.70;;;22.60;99.90;;;;;;5084290;28;20450;-73
2021/08/28 11:37:43;;;;;;;1.60;1.37;;;23.30;99.90;;;;;;5080462;28;20490;-73
2021/08/28 11:40:28;;;;;;;1.60;1.00;;;24.30;99.90;;;;;;5080781;28;20552;-73
2021/08/28 11:42:55;;;;;;;1.20;1.10;;;25.40;99.90;;;;;;5080696;28;20489;-74
2021/08/28 11:45:35;;;;;;;1.27;1.03;;;26.20;99.90;;;;;;5080665;28;20934;-73
2021/08/28 11:48:07;;;;;;;1.77;1.10;;;26.50;99.90;;;;;;5079094;28;20442;-73
2021/08/28 11:50:35;;;;;;;1.30;1.20;;;26.90;99.90;;;;;;5077949;28;20466;-73
2021/08/28 11:53:03;;;;;;;1.50;1.13;;;27.30;99.90;;;;;;5078488;28;20482;-73
2021/08/28 11:55:34;;;;;;;2.17;1.40;;;27.70;99.90;;;;;;5078598;28;20536;-74
2021/08/28 11:58:06;;;;;;;2.00;1.10;;;28.00;99.90;;;;;;5076620;28;20728;-73
2021/08/28 12:00:34;;;;;;;1.20;1.10;;;28.30;99.90;;;;;;5075928;28;20818;-73
2021/08/28 12:03:06;;;;;;;4.90;4.00;;;28.50;99.90;;;;;;5075849;28;20454;-72
2021/08/28 12:05:33;;;;;;;1.70;1.30;;;29.00;99.90;;;;;;5075276;28;20447;-74
2021/08/28 12:08:00;;;;;;;1.20;1.00;;;29.30;99.90;;;;;;5075769;28;20459;-73
2021/08/28 12:10:28;;;;;;;2.30;1.23;;;29.30;99.90;;;;;;5075805;28;20880;-73
2021/08/28 12:12:57;;;;;;;1.50;1.30;;;28.70;99.90;;;;;;5075995;28;20497;-73
2021/08/28 12:15:24;;;;;;;1.63;1.53;;;27.70;99.90;;;;;;5076457;28;20462;-73
2021/08/28 12:17:51;;;;;;;2.30;1.80;;;27.00;99.90;;;;;;5077221;28;20469;-73
2021/08/28 12:20:23;;;;;;;1.30;1.13;;;26.30;99.90;;;;;;5077136;28;20520;-73
2021/08/28 12:22:51;;;;;;;1.50;1.40;;;25.80;99.90;;;;;;5077279;28;20439;-73
2021/08/28 12:25:18;;;;;;;1.30;1.20;;;25.70;99.90;;;;;;5076477;28;20465;-73
2021/08/28 12:27:46;;;;;;;1.60;1.50;;;25.70;99.90;;;;;;5075820;28;20465;-74
2021/08/28 12:30:14;;;;;;;1.57;1.47;;;26.00;1.00;;;;;;5076082;28;20465;-74
2021/08/28 12:32:40;;;;;;;1.50;1.40;;;26.20;1.00;;;;;;5076393;28;20915;-73
2021/08/28 12:35:08;;;;;;;1.40;1.23;;;26.10;1.00;;;;;;5077242;28;20454;-73
2021/08/28 12:37:35;;;;;;;1.43;1.33;;;26.00;1.00;;;;;;5077863;28;20454;-73
2021/08/28 12:40:04;;;;;;;1.83;1.50;;;26.00;1.00;;;;;;5077400;28;20841;-74
2021/08/28 12:42:33;;;;;;;1.50;1.40;;;26.20;1.00;;;;;;5077545;28;20486;-74
2021/08/28 12:45:03;;;;;;;1.67;1.57;;;26.20;1.00;;;;;;5077147;28;20454;-74
2021/08/28 12:47:32;;;;;;;1.30;1.20;;;26.10;1.00;;;;;;5077551;28;20470;-74
2021/08/28 12:49:59;;;;;;;1.60;1.30;;;26.00;1.00;;;;;;5077304;28;20823;-74
2021/08/28 12:52:36;;;;;;;1.97;1.57;;;25.80;1.00;;;;;;5076566;28;20454;-74
2021/08/28 12:55:03;;;;;;;1.60;1.50;;;25.60;1.00;;;;;;5075069;28;20542;-74